Time;durP1;ratioP1;P1;durP2;ratioP2;P2;SDS_P1;SDS_P2;PMS_P1;PMS_P2;Temp;Humidity;BMP_temperature;BMP_pressure;BME280_temperature;BME280_humidity;BME280_pressure;Samples;Min_cycle;Max_cycle;Signal;HPM_P1;HPM_P2
2022/07/05 00:02:24;;;;;;;10.57;6.47;;;;;;;20.21;68.00;101136.53;5053158;28;20036;-66
2022/07/05 00:04:50;;;;;;;13.77;7.60;;;;;;;20.35;68.05;101148.94;5053360;28;20044;-68
2022/07/05 00:07:19;;;;;;;11.15;7.03;;;;;;;20.34;67.60;101147.28;5053311;28;20039;-66
2022/07/05 00:09:46;;;;;;;9.13;6.50;;;;;;;20.37;67.39;101144.16;5052931;28;20067;-69
2022/07/05 00:12:13;;;;;;;7.38;5.65;;;;;;;20.36;67.39;101143.31;5053160;28;20091;-67
2022/07/05 00:14:39;;;;;;;9.18;6.07;;;;;;;20.40;67.42;101149.16;5053205;28;20049;-67
2022/07/05 00:17:05;;;;;;;9.25;5.72;;;;;;;20.32;67.69;101136.69;5052958;28;20032;-66
2022/07/05 00:19:31;;;;;;;10.68;6.35;;;;;;;20.34;67.78;101139.19;5053331;28;20514;-66
2022/07/05 00:21:57;;;;;;;13.95;6.88;;;;;;;20.39;67.89;101147.47;5053088;28;20040;-66
2022/07/05 00:24:23;;;;;;;13.55;5.80;;;;;;;20.31;67.69;101134.22;5051843;28;20036;-66
2022/07/05 00:26:49;;;;;;;8.95;5.55;;;;;;;20.38;67.36;101141.22;5052985;28;20069;-69
2022/07/05 00:29:14;;;;;;;12.20;5.97;;;;;;;20.44;67.32;101134.16;5053020;28;20064;-66
2022/07/05 00:31:40;;;;;;;12.70;5.53;;;;;;;20.48;67.27;101139.94;5051652;28;20036;-67
2022/07/05 00:34:06;;;;;;;11.93;5.65;;;;;;;20.42;66.98;101118.13;5052880;28;20044;-68
2022/07/05 00:36:31;;;;;;;7.90;5.05;;;;;;;20.50;66.56;101127.84;5053267;28;20046;-66
2022/07/05 00:38:57;;;;;;;14.60;5.93;;;;;;;20.58;66.39;101132.19;5053125;28;20036;-67
2022/07/05 00:41:22;;;;;;;9.10;4.90;;;;;;;20.59;66.41;101131.13;5052783;28;20041;-66
2022/07/05 00:43:59;;;;;;;10.95;4.47;;;;;;;20.61;65.85;101127.16;5052414;28;20041;-66
2022/07/05 00:46:26;;;;;;;11.65;5.40;;;;;;;20.53;65.74;101122.03;5052614;28;20032;-65
2022/07/05 00:48:53;;;;;;;12.95;5.90;;;;;;;20.67;65.11;101131.69;5052814;28;20041;-67
2022/07/05 00:51:20;;;;;;;14.55;6.22;;;;;;;20.69;65.24;101120.66;5052518;28;20037;-68
2022/07/05 00:53:45;;;;;;;11.25;4.93;;;;;;;20.84;65.08;101125.75;5051170;28;20124;-68
2022/07/05 00:56:12;;;;;;;7.75;4.70;;;;;;;20.87;64.42;101128.84;5052626;28;20064;-66
2022/07/05 00:58:38;;;;;;;11.43;5.30;;;;;;;20.87;64.13;101125.28;5052186;28;20128;-66
2022/07/05 01:01:06;;;;;;;11.65;5.40;;;;;;;20.57;64.14;101079.94;5051166;28;20403;-65
2022/07/05 01:03:32;;;;;;;11.80;5.68;;;;;;;20.90;63.84;101130.25;5051500;28;20059;-67
2022/07/05 01:06:00;;;;;;;16.63;5.50;;;;;;;20.90;64.37;101127.56;5052201;28;20512;-65
2022/07/05 01:08:27;;;;;;;16.80;5.60;;;;;;;20.99;63.99;101126.22;5052299;28;20040;-65
2022/07/05 01:10:57;;;;;;;15.57;6.32;;;;;;;21.02;63.87;101128.47;5052152;28;20064;-68
2022/07/05 01:13:24;;;;;;;11.77;4.88;;;;;;;21.01;63.56;101116.00;5051994;28;20045;-66
2022/07/05 01:15:50;;;;;;;12.48;5.15;;;;;;;21.04;63.56;101123.66;5052016;28;20518;-66
2022/07/05 01:18:16;;;;;;;14.35;4.82;;;;;;;21.04;63.55;101110.94;5052231;28;20116;-66
2022/07/05 01:20:42;;;;;;;18.90;5.05;;;;;;;20.94;63.28;101096.28;5051171;28;20415;-67
2022/07/05 01:23:08;;;;;;;11.30;4.68;;;;;;;21.13;63.32;101127.75;5051111;28;20090;-66
2022/07/05 01:25:34;;;;;;;8.00;4.97;;;;;;;20.92;63.70;101095.69;5052215;28;20119;-65
2022/07/05 01:27:59;;;;;;;13.75;5.00;;;;;;;21.12;63.26;101136.94;5051172;28;20535;-66
2022/07/05 01:30:25;;;;;;;12.07;4.63;;;;;;;21.12;63.55;101146.94;5052388;28;20175;-67
2022/07/05 01:32:51;;;;;;;16.45;4.93;;;;;;;21.17;63.23;101158.75;5052207;28;20033;-67
2022/07/05 01:35:23;;;;;;;14.02;5.18;;;;;;;21.23;63.40;101174.16;5052506;28;20036;-67
2022/07/05 01:37:50;;;;;;;15.27;4.97;;;;;;;21.17;62.15;101166.88;5054787;28;20041;-68
2022/07/05 01:40:18;;;;;;;9.68;4.28;;;;;;;21.16;62.06;101181.47;5057511;28;20036;-66
2022/07/05 01:42:44;;;;;;;14.68;5.45;;;;;;;21.11;62.26;101172.38;5056240;28;20162;-70
2022/07/05 01:45:10;;;;;;;25.58;5.32;;;;;;;21.11;63.87;101185.91;5053831;28;20190;-65
2022/07/05 01:47:44;;;;;;;30.10;7.38;;;;;;;20.88;69.02;101219.00;5051956;28;20047;-67
2022/07/05 01:50:12;;;;;;;27.88;8.35;;;;;;;20.30;73.06;101213.69;5051863;28;20051;-66
2022/07/05 01:52:43;;;;;;;22.30;8.63;;;;;;;19.91;76.82;101201.97;5051908;28;20049;-70
2022/07/05 01:55:09;;;;;;;14.63;7.25;;;;;;;19.65;76.18;101210.16;5052738;28;20037;-67
2022/07/05 01:57:35;;;;;;;15.13;7.15;;;;;;;19.55;77.75;101202.50;5052169;28;20055;-67
2022/07/05 02:00:00;;;;;;;16.83;7.75;;;;;;;19.14;78.33;101164.94;5052685;28;20037;-66
2022/07/05 02:02:26;;;;;;;22.80;10.13;;;;;;;19.26;81.76;101217.25;5052424;28;20124;-67
2022/07/05 02:04:51;;;;;;;30.50;9.75;;;;;;;19.15;83.65;101216.03;5052018;28;20515;-66
2022/07/05 02:07:17;;;;;;;12.85;6.00;;;;;;;18.92;81.94;101201.25;5051938;28;20480;-67
2022/07/05 02:09:46;;;;;;;15.57;8.30;;;;;;;18.87;81.94;101208.13;5051677;28;20152;-67
2022/07/05 02:12:37;;;;;;;13.93;7.28;;;;;;;18.82;82.79;101223.28;5051805;28;20075;-67
2022/07/05 02:15:03;;;;;;;16.58;7.55;;;;;;;18.83;84.90;101212.28;5051101;28;20484;-65
2022/07/05 02:17:29;;;;;;;15.80;8.75;;;;;;;18.84;85.75;101194.22;5055410;28;20040;-67
2022/07/05 02:19:54;;;;;;;14.50;7.22;;;;;;;18.86;83.82;101198.34;5055740;28;20453;-67
2022/07/05 02:22:20;;;;;;;20.48;8.02;;;;;;;18.73;84.95;101195.63;5055576;28;20096;-67
2022/07/05 02:24:46;;;;;;;15.10;8.35;;;;;;;18.69;86.91;101209.75;5055661;28;20037;-68
2022/07/05 02:27:12;;;;;;;15.20;7.47;;;;;;;18.65;86.71;101197.69;5055670;28;20511;-66
2022/07/05 02:29:37;;;;;;;12.88;5.45;;;;;;;18.50;82.51;101187.03;5055748;28;20503;-67
2022/07/05 02:32:03;;;;;;;12.85;5.70;;;;;;;18.38;83.25;101167.94;5055093;28;20407;-67
2022/07/05 02:34:28;;;;;;;10.02;4.13;;;;;;;18.25;81.28;101154.44;5055232;28;20048;-67
2022/07/05 02:36:54;;;;;;;13.57;5.57;;;;;;;18.15;83.70;101165.59;5055512;28;20032;-68
2022/07/05 02:39:19;;;;;;;8.23;4.15;;;;;;;18.04;82.26;101168.88;5055294;28;20037;-66
2022/07/05 02:41:45;;;;;;;11.48;4.75;;;;;;;17.84;83.09;101160.69;5053938;28;20040;-68
2022/07/05 02:44:10;;;;;;;4.57;2.85;;;;;;;17.65;81.29;101151.47;5055454;28;20036;-65
2022/07/05 02:46:37;;;;;;;8.45;3.47;;;;;;;17.58;82.34;101145.22;5054157;28;20059;-68
2022/07/05 02:49:02;;;;;;;4.53;3.90;;;;;;;17.49;82.92;101149.09;5055299;28;20147;-68
2022/07/05 02:51:28;;;;;;;8.23;3.85;;;;;;;17.31;83.57;101124.53;5055114;28;20419;-67
2022/07/05 02:53:53;;;;;;;5.85;3.38;;;;;;;17.12;82.99;101098.34;5055462;28;20458;-69
2022/07/05 02:56:19;;;;;;;4.07;3.45;;;;;;;17.31;84.48;101135.31;5055079;28;20048;-69
2022/07/05 02:58:44;;;;;;;6.15;3.95;;;;;;;17.12;84.64;101106.44;5055814;28;20064;-66
2022/07/05 03:01:10;;;;;;;6.28;3.55;;;;;;;17.40;84.13;101154.84;5055335;28;20565;-67
2022/07/05 03:03:35;;;;;;;7.07;4.28;;;;;;;17.08;84.74;101108.69;5056876;28;20129;-67
2022/07/05 03:06:01;;;;;;;7.88;3.55;;;;;;;17.41;84.90;101156.50;5055665;28;20068;-66
2022/07/05 03:08:26;;;;;;;5.22;3.60;;;;;;;17.52;85.08;101167.56;5055367;28;20474;-66
2022/07/05 03:10:54;;;;;;;8.40;5.00;;;;;;;17.56;85.89;101155.34;5054949;28;20068;-65
2022/07/05 03:13:20;;;;;;;6.85;5.03;;;;;;;17.60;84.97;101147.69;5054630;28;20147;-67
2022/07/05 03:15:46;;;;;;;10.82;5.30;;;;;;;17.49;85.38;101127.56;5056184;28;20493;-67
2022/07/05 03:18:11;;;;;;;7.88;4.65;;;;;;;17.57;85.31;101135.47;5055850;28;20548;-68
2022/07/05 03:20:37;;;;;;;10.52;4.72;;;;;;;17.67;85.47;101150.44;5055749;28;20037;-68
2022/07/05 03:23:03;;;;;;;9.10;6.25;;;;;;;17.69;85.74;101154.63;5055597;28;20041;-67
2022/07/05 03:25:28;;;;;;;10.57;6.60;;;;;;;17.63;85.50;101134.66;5055442;28;20045;-67
2022/07/05 03:27:54;;;;;;;7.68;5.85;;;;;;;17.61;85.80;101131.34;5054035;28;20029;-66
2022/07/05 03:30:20;;;;;;;7.95;6.00;;;;;;;17.41;86.46;101108.88;5054758;28;20052;-70
2022/07/05 03:32:45;;;;;;;9.38;6.72;;;;;;;17.75;85.94;101153.00;5054597;28;20032;-66
2022/07/05 03:35:11;;;;;;;7.18;6.47;;;;;;;17.74;85.78;101143.25;5054169;28;20028;-66
2022/07/05 03:37:36;;;;;;;11.10;6.55;;;;;;;17.87;86.10;101156.78;5054525;28;20064;-69
2022/07/05 03:40:03;;;;;;;9.05;6.22;;;;;;;17.75;86.86;101126.06;5053970;28;20377;-67
2022/07/05 03:42:28;;;;;;;8.60;5.97;;;;;;;17.34;85.90;101044.22;5053958;28;20048;-67
2022/07/05 03:44:54;;;;;;;9.25;7.57;;;;;;;17.78;85.93;101094.16;5054434;28;20033;-68
2022/07/05 03:47:20;;;;;;;10.27;5.40;;;;;;;18.05;84.65;101143.59;5055345;28;20039;-66
2022/07/05 03:49:46;;;;;;;10.45;6.85;;;;;;;17.98;84.42;101131.13;5055418;28;20025;-67
2022/07/05 03:52:11;;;;;;;9.02;4.65;;;;;;;17.84;83.33;101141.00;5055043;28;20055;-67
2022/07/05 03:54:37;;;;;;;7.75;5.50;;;;;;;17.80;84.57;101135.19;5055353;28;20037;-67
2022/07/05 03:57:03;;;;;;;8.27;5.70;;;;;;;17.81;84.61;101141.41;5054541;28;20378;-67
2022/07/05 03:59:29;;;;;;;6.53;5.25;;;;;;;17.81;84.40;101138.72;5055436;28;20037;-66
2022/07/05 04:01:54;;;;;;;7.90;6.30;;;;;;;17.96;84.78;101139.41;5054680;28;20032;-66
2022/07/05 04:04:20;;;;;;;7.35;6.25;;;;;;;18.00;84.51;101119.13;5053696;28;20033;-69
2022/07/05 04:06:45;;;;;;;9.32;6.18;;;;;;;18.04;84.13;101109.59;5054780;28;20040;-65
2022/07/05 04:09:11;;;;;;;12.77;6.93;;;;;;;18.11;84.11;101117.69;5055947;28;20070;-66
2022/07/05 04:11:38;;;;;;;8.57;5.95;;;;;;;18.10;84.04;101113.31;5054364;28;20404;-67
2022/07/05 04:14:04;;;;;;;10.85;6.53;;;;;;;18.36;84.57;101169.19;5054541;28;20041;-66
2022/07/05 04:16:29;;;;;;;10.98;7.10;;;;;;;18.26;84.64;101148.84;5055198;28;20059;-66
2022/07/05 04:18:55;;;;;;;10.80;7.25;;;;;;;17.90;86.46;101089.00;5055349;28;20049;-66
2022/07/05 04:21:20;;;;;;;11.82;9.30;;;;;;;18.00;88.06;101146.06;5054875;28;20507;-68
2022/07/05 04:23:45;;;;;;;10.55;7.70;;;;;;;17.79;89.31;101148.88;5054333;28;20437;-69
2022/07/05 04:26:11;;;;;;;10.25;7.80;;;;;;;17.71;90.16;101152.56;5053315;28;20132;-68
2022/07/05 04:28:36;;;;;;;7.72;5.82;;;;;;;17.61;89.68;101131.34;5053167;28;20029;-68
2022/07/05 04:31:02;;;;;;;10.32;7.22;;;;;;;17.60;89.58;101123.47;5051764;28;20040;-68
2022/07/05 04:33:28;;;;;;;10.48;7.30;;;;;;;17.82;90.07;101149.28;5035321;28;20418;-69
2022/07/05 04:35:53;;;;;;;10.73;8.48;;;;;;;17.90;90.11;101145.59;5053328;28;20037;-66
2022/07/05 04:38:20;;;;;;;8.95;6.70;;;;;;;17.92;88.57;101130.06;5053195;28;20594;-67
2022/07/05 04:40:45;;;;;;;8.73;7.10;;;;;;;17.99;88.58;101128.22;5051984;28;20423;-67
2022/07/05 04:43:11;;;;;;;11.20;7.65;;;;;;;17.75;87.83;101094.56;5053074;28;20048;-66
2022/07/05 04:45:37;;;;;;;8.60;7.75;;;;;;;17.94;88.69;101133.41;5051209;28;20029;-66
2022/07/05 04:48:03;;;;;;;12.27;8.23;;;;;;;17.94;89.36;101122.63;5052513;28;20037;-69
2022/07/05 04:50:28;;;;;;;9.55;7.20;;;;;;;17.96;89.00;101125.94;5052353;28;20492;-66
2022/07/05 04:52:54;;;;;;;9.55;7.90;;;;;;;17.97;89.73;101122.22;5051117;28;20033;-69
2022/07/05 04:55:20;;;;;;;10.48;7.03;;;;;;;17.98;89.42;101147.31;5052560;28;20037;-68
2022/07/05 04:57:45;;;;;;;9.95;8.75;;;;;;;18.09;90.67;101177.19;5052806;28;20029;-69
2022/07/05 05:00:13;;;;;;;11.50;8.70;;;;;;;17.99;91.60;101182.13;5052772;28;20033;-66
2022/07/05 05:02:39;;;;;;;10.13;9.18;;;;;;;18.12;92.70;101202.91;5053483;28;20044;-69
2022/07/05 05:05:05;;;;;;;9.05;8.15;;;;;;;18.01;91.65;101196.22;5053200;28;20049;-67
2022/07/05 05:07:32;;;;;;;9.10;7.93;;;;;;;17.94;91.30;101171.97;5053742;28;20040;-68
2022/07/05 05:09:58;;;;;;;14.27;10.02;;;;;;;18.04;91.45;101190.44;5035374;28;20078;-68
2022/07/05 05:12:24;;;;;;;12.13;8.90;;;;;;;17.97;90.51;101173.41;5053288;28;20061;-64
2022/07/05 05:14:50;;;;;;;10.95;9.38;;;;;;;18.03;91.53;101180.69;5052352;28;20506;-67
2022/07/05 05:17:16;;;;;;;11.05;8.60;;;;;;;17.85;90.95;101148.06;5052049;28;20064;-68
2022/07/05 05:19:41;;;;;;;17.98;10.50;;;;;;;18.05;91.50;101170.53;5052230;28;20087;-66
2022/07/05 05:22:07;;;;;;;10.88;9.32;;;;;;;18.10;91.40;101176.16;5052747;28;20029;-68
2022/07/05 05:24:34;;;;;;;11.00;9.48;;;;;;;18.02;91.43;101143.16;5051424;28;20136;-66
2022/07/05 05:27:00;;;;;;;15.85;10.18;;;;;;;18.34;91.71;101185.56;5052465;28;20041;-68
2022/07/05 05:29:26;;;;;;;15.43;9.90;;;;;;;18.17;91.77;101155.44;5052441;28;20036;-65
2022/07/05 05:31:52;;;;;;;11.57;9.98;;;;;;;18.27;91.66;101163.97;5052163;28;20124;-68
2022/07/05 05:34:18;;;;;;;12.52;9.13;;;;;;;18.25;92.17;101155.28;5052054;28;20039;-68
2022/07/05 05:36:43;;;;;;;10.68;9.57;;;;;;;18.32;91.74;101170.63;5052093;28;20439;-68
2022/07/05 05:39:09;;;;;;;11.38;9.85;;;;;;;18.18;92.60;101148.19;5051886;28;20091;-71
2022/07/05 05:41:35;;;;;;;14.57;10.15;;;;;;;18.30;92.11;101162.75;5052494;28;20399;-67
2022/07/05 05:44:01;;;;;;;12.23;9.95;;;;;;;18.05;92.02;101124.72;5052477;28;20033;-69
2022/07/05 05:46:26;;;;;;;12.77;11.43;;;;;;;18.06;92.71;101129.06;5053758;28;20430;-71
2022/07/05 05:48:52;;;;;;;16.67;10.43;;;;;;;18.39;91.73;101160.69;5051705;28;20047;-70
2022/07/05 05:51:17;;;;;;;12.70;10.43;;;;;;;18.48;91.69;101171.06;5054286;28;20412;-68
2022/07/05 05:53:45;;;;;;;18.30;10.98;;;;;;;18.61;92.57;101164.88;5055586;28;20041;-71
2022/07/05 05:56:13;;;;;;;12.68;11.23;;;;;;;18.82;92.08;101177.41;5054929;28;20044;-70
2022/07/05 05:58:39;;;;;;;14.02;12.43;;;;;;;18.86;90.71;101167.84;5054592;28;20039;-70
2022/07/05 06:01:04;;;;;;;12.30;10.95;;;;;;;18.78;90.02;101141.03;5055870;28;20084;-69
2022/07/05 06:03:30;;;;;;;12.50;10.98;;;;;;;19.06;89.65;101178.63;5055945;28;20497;-69
2022/07/05 06:05:56;;;;;;;12.35;10.68;;;;;;;19.34;89.32;101184.63;5055970;28;20122;-66
2022/07/05 06:08:22;;;;;;;13.35;11.13;;;;;;;19.52;88.15;101166.94;5055809;28;20037;-66
2022/07/05 06:10:52;;;;;;;12.07;10.85;;;;;;;19.76;86.38;101160.88;5056072;28;20056;-68
2022/07/05 06:13:17;;;;;;;11.57;10.10;;;;;;;20.05;85.78;101167.63;5055596;28;20044;-72
2022/07/05 06:15:43;;;;;;;13.65;10.52;;;;;;;20.06;85.40;101143.06;5054286;28;20503;-66
2022/07/05 06:18:09;;;;;;;14.75;11.23;;;;;;;20.22;85.64;101166.06;5055399;28;20037;-68
2022/07/05 06:20:37;;;;;;;13.30;11.10;;;;;;;20.25;84.60;101168.38;5055168;28;20045;-70
2022/07/05 06:23:04;;;;;;;15.32;12.02;;;;;;;20.08;84.60;101150.97;5055113;28;20059;-67
2022/07/05 06:25:31;;;;;;;15.97;12.00;;;;;;;20.33;85.33;101160.00;5037552;28;20055;-67
2022/07/05 06:28:01;;;;;;;12.30;11.10;;;;;;;20.35;84.67;101143.53;5055304;28;20286;-68
2022/07/05 06:30:30;;;;;;;16.00;12.82;;;;;;;20.50;84.28;101154.91;5055494;28;20033;-67
2022/07/05 06:32:55;;;;;;;17.08;12.98;;;;;;;20.55;84.80;101163.22;5055284;28;20029;-71
2022/07/05 06:35:22;;;;;;;15.27;11.85;;;;;;;20.75;84.83;101178.47;5055342;28;20056;-69
2022/07/05 06:38:08;;;;;;;14.10;11.27;;;;;;;21.07;81.00;101180.09;5054892;28;20033;-65
2022/07/05 06:40:39;;;;;;;15.95;12.77;;;;;;;21.24;80.75;101172.28;5055188;28;20136;-67
2022/07/05 06:43:09;;;;;;;13.10;11.65;;;;;;;21.39;80.34;101159.19;5055060;28;20040;-71
2022/07/05 06:45:35;;;;;;;13.45;11.20;;;;;;;21.38;81.48;101173.78;5055073;28;20115;-66
2022/07/05 06:48:04;;;;;;;14.35;11.85;;;;;;;21.28;81.86;101152.63;5054959;28;20622;-69
2022/07/05 06:50:35;;;;;;;10.88;9.02;;;;;;;21.48;77.46;101166.00;5054918;28;20040;-68
2022/07/05 06:53:01;;;;;;;11.00;8.88;;;;;;;21.39;80.14;101155.66;5055173;28;20387;-67
2022/07/05 06:55:27;;;;;;;14.95;11.25;;;;;;;21.62;81.77;101158.53;5054990;28;20037;-72
2022/07/05 06:58:03;;;;;;;16.25;11.70;;;;;;;21.93;80.52;101160.25;5056939;28;20033;-68
2022/07/05 07:00:29;;;;;;;12.52;11.00;;;;;;;21.90;79.80;101158.81;5056112;28;20041;-68
2022/07/05 07:02:55;;;;;;;15.68;11.82;;;;;;;22.15;79.71;101168.75;5054514;28;20040;-70
2022/07/05 07:05:21;;;;;;;12.52;10.63;;;;;;;22.15;78.63;101145.19;5054877;28;20037;-73
2022/07/05 07:10:31;;;;;;;16.38;10.60;;;;;;;22.58;77.60;101162.31;5054369;28;20061;-71
2022/07/05 07:13:00;;;;;;;12.98;10.48;;;;;;;22.32;72.88;101167.09;5054468;28;20067;-75
2022/07/05 07:15:26;;;;;;;15.40;11.18;;;;;;;22.04;77.28;101162.25;5054756;28;20527;-68
2022/07/05 07:17:52;;;;;;;15.98;10.27;;;;;;;22.14;78.30;101165.22;5057415;28;20178;-74
2022/07/05 07:20:18;;;;;;;13.68;10.82;;;;;;;22.00;77.96;101111.38;5054869;28;20500;-68
2022/07/05 07:22:44;;;;;;;12.35;9.35;;;;;;;22.49;77.51;101151.78;5054426;28;20385;-68
2022/07/05 07:25:20;;;;;;;12.20;10.07;;;;;;;22.61;77.06;101142.84;5056605;28;20040;-75
2022/07/05 07:27:51;;;;;;;16.42;12.05;;;;;;;22.65;75.51;101158.44;5055174;28;20557;-66
2022/07/05 07:30:19;;;;;;;19.52;12.27;;;;;;;22.60;75.56;101160.22;5055462;28;20408;-67
2022/07/05 07:32:45;;;;;;;13.00;9.75;;;;;;;22.63;77.24;101159.75;5058018;28;20115;-68
2022/07/05 07:35:11;;;;;;;11.50;9.68;;;;;;;22.77;76.88;101148.41;5057594;28;20043;-67
2022/07/05 07:37:37;;;;;;;11.88;9.65;;;;;;;23.16;75.55;101159.72;5059533;28;20028;-69
2022/07/05 07:40:06;;;;;;;14.55;9.27;;;;;;;23.24;71.88;101155.81;5061045;28;20071;-69
2022/07/05 07:42:32;;;;;;;15.07;10.38;;;;;;;23.24;72.96;101151.22;5058554;28;20033;-66
2022/07/05 07:44:58;;;;;;;14.80;10.05;;;;;;;23.36;73.32;101154.72;5040995;28;20102;-67
2022/07/05 07:47:24;;;;;;;15.98;9.32;;;;;;;23.39;72.79;101148.81;5060273;28;20488;-69
2022/07/05 07:49:50;;;;;;;10.07;7.72;;;;;;;23.63;72.77;101160.53;5060210;28;20048;-67
2022/07/05 07:52:15;;;;;;;15.40;8.43;;;;;;;23.62;71.90;101172.47;5060201;28;20036;-69
2022/07/05 07:54:41;;;;;;;11.65;9.68;;;;;;;23.57;72.70;101160.66;5058882;28;20037;-69
2022/07/05 07:57:07;;;;;;;13.70;9.30;;;;;;;23.63;71.92;101162.44;5058677;28;20436;-67
2022/07/05 07:59:35;;;;;;;12.32;9.57;;;;;;;23.75;73.52;101157.81;5059634;28;20586;-67
2022/07/05 08:02:01;;;;;;;18.90;8.52;;;;;;;23.71;71.89;101162.91;5057350;28;20047;-68
2022/07/05 08:04:27;;;;;;;11.75;8.02;;;;;;;23.67;71.61;101178.00;5055871;28;20120;-67
2022/07/05 08:06:53;;;;;;;8.73;7.82;;;;;;;23.53;71.56;101171.16;5054573;28;20488;-69
2022/07/05 08:09:19;;;;;;;18.30;8.73;;;;;;;23.59;71.22;101175.66;5053039;28;20048;-74
